sensor_id;sensor_type;location;lat;lon;timestamp;temperature;humidity
51557;DHT22;38766;53.194;5.532;2024-01-30T00:01:25;6.30;99.90
51557;DHT22;38766;53.194;5.532;2024-01-30T00:03:50;6.30;99.90
51557;DHT22;38766;53.194;5.532;2024-01-30T00:06:19;6.30;99.90
51557;DHT22;38766;53.194;5.532;2024-01-30T00:08:46;6.20;99.90
51557;DHT22;38766;53.194;5.532;2024-01-30T00:11:14;6.20;99.90
51557;DHT22;38766;53.194;5.532;2024-01-30T00:13:40;6.20;99.90
51557;DHT22;38766;53.194;5.532;2024-01-30T00:16:06;6.20;99.90
51557;DHT22;38766;53.194;5.532;2024-01-30T00:18:32;6.20;99.90
51557;DHT22;38766;53.194;5.532;2024-01-30T00:20:57;6.10;99.90
51557;DHT22;38766;53.194;5.532;2024-01-30T00:23:23;6.10;99.90
51557;DHT22;38766;53.194;5.532;2024-01-30T00:25:48;6.10;99.90
51557;DHT22;38766;53.194;5.532;2024-01-30T00:28:14;6.10;99.90
51557;DHT22;38766;53.194;5.532;2024-01-30T00:30:40;6.10;99.90
51557;DHT22;38766;53.194;5.532;2024-01-30T00:33:05;6.00;99.90
51557;DHT22;38766;53.194;5.532;2024-01-30T00:35:31;6.10;99.90
51557;DHT22;38766;53.194;5.532;2024-01-30T00:37:56;6.00;99.90
51557;DHT22;38766;53.194;5.532;2024-01-30T00:40:22;6.00;99.90
51557;DHT22;38766;53.194;5.532;2024-01-30T00:42:48;6.00;99.90
51557;DHT22;38766;53.194;5.532;2024-01-30T00:45:14;6.00;99.90
51557;DHT22;38766;53.194;5.532;2024-01-30T00:47:41;6.10;99.90
51557;DHT22;38766;53.194;5.532;2024-01-30T00:50:06;6.10;99.90
51557;DHT22;38766;53.194;5.532;2024-01-30T00:52:32;6.10;99.90
51557;DHT22;38766;53.194;5.532;2024-01-30T00:55:01;6.10;99.90
51557;DHT22;38766;53.194;5.532;2024-01-30T00:57:28;6.10;99.90
51557;DHT22;38766;53.194;5.532;2024-01-30T00:59:54;6.10;99.90
51557;DHT22;38766;53.194;5.532;2024-01-30T01:02:19;6.10;99.90
51557;DHT22;38766;53.194;5.532;2024-01-30T01:04:45;6.20;99.90
51557;DHT22;38766;53.194;5.532;2024-01-30T01:07:11;6.20;99.90
51557;DHT22;38766;53.194;5.532;2024-01-30T01:09:36;6.20;99.90
51557;DHT22;38766;53.194;5.532;2024-01-30T01:12:03;6.20;99.90
51557;DHT22;38766;53.194;5.532;2024-01-30T01:14:28;6.30;99.90
51557;DHT22;38766;53.194;5.532;2024-01-30T01:16:54;6.30;99.90
51557;DHT22;38766;53.194;5.532;2024-01-30T01:19:20;6.40;99.90
51557;DHT22;38766;53.194;5.532;2024-01-30T01:21:45;6.40;99.90
51557;DHT22;38766;53.194;5.532;2024-01-30T01:24:11;6.40;99.90
51557;DHT22;38766;53.194;5.532;2024-01-30T01:26:36;6.50;99.90
51557;DHT22;38766;53.194;5.532;2024-01-30T01:29:02;6.50;99.90
51557;DHT22;38766;53.194;5.532;2024-01-30T01:31:35;6.50;99.90
51557;DHT22;38766;53.194;5.532;2024-01-30T01:34:05;6.60;99.90
51557;DHT22;38766;53.194;5.532;2024-01-30T01:36:31;6.60;99.90
51557;DHT22;38766;53.194;5.532;2024-01-30T01:38:56;6.60;99.90
51557;DHT22;38766;53.194;5.532;2024-01-30T01:41:22;6.60;99.90
51557;DHT22;38766;53.194;5.532;2024-01-30T01:43:48;6.70;99.90
51557;DHT22;38766;53.194;5.532;2024-01-30T01:46:13;6.70;99.90
51557;DHT22;38766;53.194;5.532;2024-01-30T01:48:39;6.70;99.90
51557;DHT22;38766;53.194;5.532;2024-01-30T01:51:05;6.70;99.90
51557;DHT22;38766;53.194;5.532;2024-01-30T01:53:31;6.80;99.90
51557;DHT22;38766;53.194;5.532;2024-01-30T01:55:57;6.80;99.90
51557;DHT22;38766;53.194;5.532;2024-01-30T01:58:25;6.80;99.90
51557;DHT22;38766;53.194;5.532;2024-01-30T02:00:54;6.90;99.90
51557;DHT22;38766;53.194;5.532;2024-01-30T02:03:20;7.00;99.90
51557;DHT22;38766;53.194;5.532;2024-01-30T02:05:50;7.00;99.90
51557;DHT22;38766;53.194;5.532;2024-01-30T02:08:16;7.00;99.90
51557;DHT22;38766;53.194;5.532;2024-01-30T02:10:42;7.10;99.90
51557;DHT22;38766;53.194;5.532;2024-01-30T02:13:07;7.10;99.90
51557;DHT22;38766;53.194;5.532;2024-01-30T02:15:33;7.10;99.90
51557;DHT22;38766;53.194;5.532;2024-01-30T02:17:59;7.10;99.90
51557;DHT22;38766;53.194;5.532;2024-01-30T02:20:25;7.20;99.90
51557;DHT22;38766;53.194;5.532;2024-01-30T02:22:54;7.20;99.90
51557;DHT22;38766;53.194;5.532;2024-01-30T02:25:38;7.30;99.90
51557;DHT22;38766;53.194;5.532;2024-01-30T02:28:04;7.30;99.90
51557;DHT22;38766;53.194;5.532;2024-01-30T02:30:30;7.30;99.90
51557;DHT22;38766;53.194;5.532;2024-01-30T02:32:55;7.30;99.90
51557;DHT22;38766;53.194;5.532;2024-01-30T02:35:21;7.30;99.90
51557;DHT22;38766;53.194;5.532;2024-01-30T02:37:47;7.30;99.90
51557;DHT22;38766;53.194;5.532;2024-01-30T02:40:12;7.30;99.90
51557;DHT22;38766;53.194;5.532;2024-01-30T02:42:39;7.30;99.90
51557;DHT22;38766;53.194;5.532;2024-01-30T02:45:05;7.30;99.90
51557;DHT22;38766;53.194;5.532;2024-01-30T02:47:31;7.40;99.90
51557;DHT22;38766;53.194;5.532;2024-01-30T02:49:56;7.40;99.90
51557;DHT22;38766;53.194;5.532;2024-01-30T02:52:22;7.40;99.90
51557;DHT22;38766;53.194;5.532;2024-01-30T02:54:47;7.30;99.90
51557;DHT22;38766;53.194;5.532;2024-01-30T02:57:13;7.40;99.90
51557;DHT22;38766;53.194;5.532;2024-01-30T02:59:39;7.40;99.90
51557;DHT22;38766;53.194;5.532;2024-01-30T03:02:04;7.30;99.90
51557;DHT22;38766;53.194;5.532;2024-01-30T03:04:30;7.30;99.90
51557;DHT22;38766;53.194;5.532;2024-01-30T03:06:55;7.30;99.90
51557;DHT22;38766;53.194;5.532;2024-01-30T03:09:21;7.30;99.90
51557;DHT22;38766;53.194;5.532;2024-01-30T03:11:47;7.30;99.90
51557;DHT22;38766;53.194;5.532;2024-01-30T03:14:12;7.20;99.90
51557;DHT22;38766;53.194;5.532;2024-01-30T03:16:38;7.20;99.90
51557;DHT22;38766;53.194;5.532;2024-01-30T03:19:06;7.20;99.90
51557;DHT22;38766;53.194;5.532;2024-01-30T03:21:33;7.20;99.90
51557;DHT22;38766;53.194;5.532;2024-01-30T03:23:58;7.20;99.90
51557;DHT22;38766;53.194;5.532;2024-01-30T03:26:25;7.20;99.90
51557;DHT22;38766;53.194;5.532;2024-01-30T03:28:50;7.10;99.90
51557;DHT22;38766;53.194;5.532;2024-01-30T03:31:16;7.20;99.90
51557;DHT22;38766;53.194;5.532;2024-01-30T03:33:41;7.20;99.90
51557;DHT22;38766;53.194;5.532;2024-01-30T03:36:08;7.10;99.90
51557;DHT22;38766;53.194;5.532;2024-01-30T03:38:33;7.20;99.90
51557;DHT22;38766;53.194;5.532;2024-01-30T03:40:59;7.10;99.90
51557;DHT22;38766;53.194;5.532;2024-01-30T03:43:25;7.20;99.90
51557;DHT22;38766;53.194;5.532;2024-01-30T03:45:51;7.20;99.90
51557;DHT22;38766;53.194;5.532;2024-01-30T03:48:17;7.30;99.90
51557;DHT22;38766;53.194;5.532;2024-01-30T03:50:42;7.30;99.90
51557;DHT22;38766;53.194;5.532;2024-01-30T03:53:08;7.30;99.90
51557;DHT22;38766;53.194;5.532;2024-01-30T03:55:33;7.30;99.90
51557;DHT22;38766;53.194;5.532;2024-01-30T03:57:59;7.40;99.90
51557;DHT22;38766;53.194;5.532;2024-01-30T04:00:25;7.40;99.90
51557;DHT22;38766;53.194;5.532;2024-01-30T04:02:50;7.40;99.90
51557;DHT22;38766;53.194;5.532;2024-01-30T04:05:16;7.50;99.90
51557;DHT22;38766;53.194;5.532;2024-01-30T04:07:42;7.50;99.90
51557;DHT22;38766;53.194;5.532;2024-01-30T04:10:09;7.60;99.90
51557;DHT22;38766;53.194;5.532;2024-01-30T04:12:35;7.60;99.90
51557;DHT22;38766;53.194;5.532;2024-01-30T04:15:02;7.60;99.90
51557;DHT22;38766;53.194;5.532;2024-01-30T04:17:28;7.60;99.90
51557;DHT22;38766;53.194;5.532;2024-01-30T04:19:54;7.70;99.90
51557;DHT22;38766;53.194;5.532;2024-01-30T04:22:20;7.70;99.90
51557;DHT22;38766;53.194;5.532;2024-01-30T04:24:46;7.70;99.90
51557;DHT22;38766;53.194;5.532;2024-01-30T04:27:12;7.70;99.90
51557;DHT22;38766;53.194;5.532;2024-01-30T04:29:38;7.70;99.90
51557;DHT22;38766;53.194;5.532;2024-01-30T04:32:04;7.70;99.90
51557;DHT22;38766;53.194;5.532;2024-01-30T04:34:29;7.70;99.90
51557;DHT22;38766;53.194;5.532;2024-01-30T04:36:55;7.80;99.90
51557;DHT22;38766;53.194;5.532;2024-01-30T04:39:20;7.70;99.90
51557;DHT22;38766;53.194;5.532;2024-01-30T04:41:46;7.70;99.90
51557;DHT22;38766;53.194;5.532;2024-01-30T04:44:12;7.70;99.90
51557;DHT22;38766;53.194;5.532;2024-01-30T04:46:37;7.70;99.90
51557;DHT22;38766;53.194;5.532;2024-01-30T04:49:03;7.70;99.90
51557;DHT22;38766;53.194;5.532;2024-01-30T04:51:29;7.80;99.90
51557;DHT22;38766;53.194;5.532;2024-01-30T04:53:55;7.70;99.90
51557;DHT22;38766;53.194;5.532;2024-01-30T04:56:21;7.70;99.90
51557;DHT22;38766;53.194;5.532;2024-01-30T04:58:46;7.70;99.90
51557;DHT22;38766;53.194;5.532;2024-01-30T05:01:18;7.70;99.90
51557;DHT22;38766;53.194;5.532;2024-01-30T05:03:44;7.70;99.90
51557;DHT22;38766;53.194;5.532;2024-01-30T05:06:09;7.70;99.90
51557;DHT22;38766;53.194;5.532;2024-01-30T05:08:35;7.60;99.90
51557;DHT22;38766;53.194;5.532;2024-01-30T05:11:02;7.70;99.90
51557;DHT22;38766;53.194;5.532;2024-01-30T05:13:30;7.70;99.90
51557;DHT22;38766;53.194;5.532;2024-01-30T05:15:56;7.70;99.90
51557;DHT22;38766;53.194;5.532;2024-01-30T05:18:21;7.70;99.90
51557;DHT22;38766;53.194;5.532;2024-01-30T05:20:47;7.70;99.90
51557;DHT22;38766;53.194;5.532;2024-01-30T05:23:13;7.70;99.90
51557;DHT22;38766;53.194;5.532;2024-01-30T05:25:38;7.70;99.90
51557;DHT22;38766;53.194;5.532;2024-01-30T05:28:04;7.70;99.90
51557;DHT22;38766;53.194;5.532;2024-01-30T05:30:30;7.70;99.90
51557;DHT22;38766;53.194;5.532;2024-01-30T05:32:55;7.80;99.90
51557;DHT22;38766;53.194;5.532;2024-01-30T05:35:21;7.80;99.90
51557;DHT22;38766;53.194;5.532;2024-01-30T05:37:48;7.80;99.90
51557;DHT22;38766;53.194;5.532;2024-01-30T05:40:14;7.80;99.90
51557;DHT22;38766;53.194;5.532;2024-01-30T05:42:40;7.80;99.90
51557;DHT22;38766;53.194;5.532;2024-01-30T05:45:06;7.90;99.90
51557;DHT22;38766;53.194;5.532;2024-01-30T05:47:31;7.80;99.90
51557;DHT22;38766;53.194;5.532;2024-01-30T05:49:57;7.90;99.90
51557;DHT22;38766;53.194;5.532;2024-01-30T05:52:23;7.90;99.90
51557;DHT22;38766;53.194;5.532;2024-01-30T05:54:48;7.90;99.90
51557;DHT22;38766;53.194;5.532;2024-01-30T05:57:14;7.90;99.90
51557;DHT22;38766;53.194;5.532;2024-01-30T05:59:39;7.90;99.90
51557;DHT22;38766;53.194;5.532;2024-01-30T06:02:05;7.90;99.90
51557;DHT22;38766;53.194;5.532;2024-01-30T06:04:31;7.90;99.90
51557;DHT22;38766;53.194;5.532;2024-01-30T06:06:56;7.90;99.90
51557;DHT22;38766;53.194;5.532;2024-01-30T06:09:22;7.90;99.90
51557;DHT22;38766;53.194;5.532;2024-01-30T06:11:47;7.90;99.90
51557;DHT22;38766;53.194;5.532;2024-01-30T06:14:13;7.90;99.90
51557;DHT22;38766;53.194;5.532;2024-01-30T06:16:39;7.90;99.90
51557;DHT22;38766;53.194;5.532;2024-01-30T06:19:04;7.90;99.90
51557;DHT22;38766;53.194;5.532;2024-01-30T06:21:31;7.90;99.90
51557;DHT22;38766;53.194;5.532;2024-01-30T06:23:57;7.90;99.90
51557;DHT22;38766;53.194;5.532;2024-01-30T06:26:23;7.90;99.90
51557;DHT22;38766;53.194;5.532;2024-01-30T06:28:48;8.00;99.90
51557;DHT22;38766;53.194;5.532;2024-01-30T06:31:14;8.00;99.90
51557;DHT22;38766;53.194;5.532;2024-01-30T06:33:40;8.00;99.90
51557;DHT22;38766;53.194;5.532;2024-01-30T06:36:07;8.00;99.90
51557;DHT22;38766;53.194;5.532;2024-01-30T06:38:33;8.00;99.90
51557;DHT22;38766;53.194;5.532;2024-01-30T06:40:58;8.00;99.90
51557;DHT22;38766;53.194;5.532;2024-01-30T06:43:24;8.00;99.90
51557;DHT22;38766;53.194;5.532;2024-01-30T06:45:50;8.00;99.90
51557;DHT22;38766;53.194;5.532;2024-01-30T06:48:17;8.00;99.90
51557;DHT22;38766;53.194;5.532;2024-01-30T06:50:42;8.00;99.90
51557;DHT22;38766;53.194;5.532;2024-01-30T06:53:08;8.00;99.90
51557;DHT22;38766;53.194;5.532;2024-01-30T06:55:34;8.10;99.90
51557;DHT22;38766;53.194;5.532;2024-01-30T06:57:59;8.00;99.90
51557;DHT22;38766;53.194;5.532;2024-01-30T07:00:25;8.00;99.90
51557;DHT22;38766;53.194;5.532;2024-01-30T07:02:50;8.00;99.90
51557;DHT22;38766;53.194;5.532;2024-01-30T07:05:16;8.00;99.90
51557;DHT22;38766;53.194;5.532;2024-01-30T07:07:42;8.00;99.90
51557;DHT22;38766;53.194;5.532;2024-01-30T07:10:08;8.00;99.90
51557;DHT22;38766;53.194;5.532;2024-01-30T07:12:34;8.00;99.90
51557;DHT22;38766;53.194;5.532;2024-01-30T07:14:59;8.00;99.90
51557;DHT22;38766;53.194;5.532;2024-01-30T07:17:25;8.10;99.90
51557;DHT22;38766;53.194;5.532;2024-01-30T07:19:51;8.00;99.90
51557;DHT22;38766;53.194;5.532;2024-01-30T07:22:16;8.00;99.90
51557;DHT22;38766;53.194;5.532;2024-01-30T07:24:43;8.00;99.90
51557;DHT22;38766;53.194;5.532;2024-01-30T07:27:10;8.00;99.90
51557;DHT22;38766;53.194;5.532;2024-01-30T07:29:35;8.00;99.90
51557;DHT22;38766;53.194;5.532;2024-01-30T07:32:01;8.00;99.90
51557;DHT22;38766;53.194;5.532;2024-01-30T07:34:27;8.00;99.90
51557;DHT22;38766;53.194;5.532;2024-01-30T07:36:53;8.00;99.90
51557;DHT22;38766;53.194;5.532;2024-01-30T07:39:18;8.00;99.90
51557;DHT22;38766;53.194;5.532;2024-01-30T07:41:44;8.00;99.90
51557;DHT22;38766;53.194;5.532;2024-01-30T07:44:09;8.00;99.90
51557;DHT22;38766;53.194;5.532;2024-01-30T07:46:35;8.00;99.90
51557;DHT22;38766;53.194;5.532;2024-01-30T07:49:00;8.00;99.90
51557;DHT22;38766;53.194;5.532;2024-01-30T07:51:27;8.00;99.90
51557;DHT22;38766;53.194;5.532;2024-01-30T07:53:54;8.00;99.90
51557;DHT22;38766;53.194;5.532;2024-01-30T07:56:20;8.20;99.90
51557;DHT22;38766;53.194;5.532;2024-01-30T07:58:46;8.10;99.90
51557;DHT22;38766;53.194;5.532;2024-01-30T08:01:11;8.20;99.90
51557;DHT22;38766;53.194;5.532;2024-01-30T08:03:37;8.20;99.90
51557;DHT22;38766;53.194;5.532;2024-01-30T08:06:05;8.20;99.90
51557;DHT22;38766;53.194;5.532;2024-01-30T08:08:32;8.20;99.90
51557;DHT22;38766;53.194;5.532;2024-01-30T08:10:57;8.30;99.90
51557;DHT22;38766;53.194;5.532;2024-01-30T08:13:23;8.30;99.90
51557;DHT22;38766;53.194;5.532;2024-01-30T08:15:48;8.30;99.90
51557;DHT22;38766;53.194;5.532;2024-01-30T08:18:14;8.40;99.90
51557;DHT22;38766;53.194;5.532;2024-01-30T08:20:40;8.30;99.90
51557;DHT22;38766;53.194;5.532;2024-01-30T08:23:05;8.40;99.90
51557;DHT22;38766;53.194;5.532;2024-01-30T08:25:31;8.40;99.90
51557;DHT22;38766;53.194;5.532;2024-01-30T08:27:57;8.50;99.90
51557;DHT22;38766;53.194;5.532;2024-01-30T08:30:22;8.50;99.90
51557;DHT22;38766;53.194;5.532;2024-01-30T08:32:48;8.50;99.90
51557;DHT22;38766;53.194;5.532;2024-01-30T08:35:14;8.50;99.90
51557;DHT22;38766;53.194;5.532;2024-01-30T08:37:41;8.60;99.90
51557;DHT22;38766;53.194;5.532;2024-01-30T08:40:07;8.60;99.90
51557;DHT22;38766;53.194;5.532;2024-01-30T08:42:34;8.60;99.90
51557;DHT22;38766;53.194;5.532;2024-01-30T08:45:00;8.60;99.90
51557;DHT22;38766;53.194;5.532;2024-01-30T08:47:25;8.70;99.90
51557;DHT22;38766;53.194;5.532;2024-01-30T08:49:51;8.70;99.90
51557;DHT22;38766;53.194;5.532;2024-01-30T08:52:17;8.70;99.90
51557;DHT22;38766;53.194;5.532;2024-01-30T08:54:43;8.70;99.90
51557;DHT22;38766;53.194;5.532;2024-01-30T08:57:11;8.80;99.90
51557;DHT22;38766;53.194;5.532;2024-01-30T08:59:37;8.80;99.90
51557;DHT22;38766;53.194;5.532;2024-01-30T09:02:02;8.90;99.90
51557;DHT22;38766;53.194;5.532;2024-01-30T09:04:29;8.90;99.90
51557;DHT22;38766;53.194;5.532;2024-01-30T09:06:55;8.90;99.90
51557;DHT22;38766;53.194;5.532;2024-01-30T09:09:20;8.90;99.90
51557;DHT22;38766;53.194;5.532;2024-01-30T09:11:46;8.90;99.90
51557;DHT22;38766;53.194;5.532;2024-01-30T09:14:12;9.00;99.90
51557;DHT22;38766;53.194;5.532;2024-01-30T09:16:37;8.90;99.90
51557;DHT22;38766;53.194;5.532;2024-01-30T09:19:04;9.00;99.90
51557;DHT22;38766;53.194;5.532;2024-01-30T09:21:29;9.10;99.90
51557;DHT22;38766;53.194;5.532;2024-01-30T09:24:02;9.00;99.90
51557;DHT22;38766;53.194;5.532;2024-01-30T09:26:29;9.00;99.90
51557;DHT22;38766;53.194;5.532;2024-01-30T09:28:54;9.00;99.90
51557;DHT22;38766;53.194;5.532;2024-01-30T09:31:20;9.00;99.90
51557;DHT22;38766;53.194;5.532;2024-01-30T09:33:46;9.00;99.90
51557;DHT22;38766;53.194;5.532;2024-01-30T09:36:13;9.10;99.90
51557;DHT22;38766;53.194;5.532;2024-01-30T09:38:41;9.10;99.90
51557;DHT22;38766;53.194;5.532;2024-01-30T09:41:09;9.10;99.90
51557;DHT22;38766;53.194;5.532;2024-01-30T09:43:38;9.10;99.90
51557;DHT22;38766;53.194;5.532;2024-01-30T09:46:11;9.10;99.90
51557;DHT22;38766;53.194;5.532;2024-01-30T09:48:39;9.00;99.90
51557;DHT22;38766;53.194;5.532;2024-01-30T09:51:07;9.10;99.90
51557;DHT22;38766;53.194;5.532;2024-01-30T09:53:33;9.00;99.90
51557;DHT22;38766;53.194;5.532;2024-01-30T09:55:59;9.00;99.90
51557;DHT22;38766;53.194;5.532;2024-01-30T09:58:26;8.90;99.90
51557;DHT22;38766;53.194;5.532;2024-01-30T10:00:51;9.00;99.90
51557;DHT22;38766;53.194;5.532;2024-01-30T10:03:18;9.00;99.90
51557;DHT22;38766;53.194;5.532;2024-01-30T10:05:51;9.00;99.90
51557;DHT22;38766;53.194;5.532;2024-01-30T10:08:18;8.90;99.90
51557;DHT22;38766;53.194;5.532;2024-01-30T10:10:49;8.90;99.90
51557;DHT22;38766;53.194;5.532;2024-01-30T10:13:16;9.00;99.90
51557;DHT22;38766;53.194;5.532;2024-01-30T10:15:41;9.00;99.90
51557;DHT22;38766;53.194;5.532;2024-01-30T10:18:08;9.00;99.90
51557;DHT22;38766;53.194;5.532;2024-01-30T10:20:35;9.00;99.90
51557;DHT22;38766;53.194;5.532;2024-01-30T10:23:01;9.00;99.90
51557;DHT22;38766;53.194;5.532;2024-01-30T10:25:27;9.10;99.90
51557;DHT22;38766;53.194;5.532;2024-01-30T10:27:55;9.00;99.90
51557;DHT22;38766;53.194;5.532;2024-01-30T10:30:22;9.00;99.90
51557;DHT22;38766;53.194;5.532;2024-01-30T10:32:48;9.00;99.90
51557;DHT22;38766;53.194;5.532;2024-01-30T10:35:14;9.00;99.90
51557;DHT22;38766;53.194;5.532;2024-01-30T10:37:41;8.90;99.90
51557;DHT22;38766;53.194;5.532;2024-01-30T10:40:09;8.90;99.90
51557;DHT22;38766;53.194;5.532;2024-01-30T10:42:44;8.90;99.90
51557;DHT22;38766;53.194;5.532;2024-01-30T10:45:12;8.90;99.90
51557;DHT22;38766;53.194;5.532;2024-01-30T10:47:40;8.80;99.90
51557;DHT22;38766;53.194;5.532;2024-01-30T10:50:08;8.80;99.90
51557;DHT22;38766;53.194;5.532;2024-01-30T10:52:34;8.70;99.90
51557;DHT22;38766;53.194;5.532;2024-01-30T10:55:00;8.70;99.90
51557;DHT22;38766;53.194;5.532;2024-01-30T10:57:27;8.80;99.90
51557;DHT22;38766;53.194;5.532;2024-01-30T10:59:57;8.70;99.90
51557;DHT22;38766;53.194;5.532;2024-01-30T11:02:24;8.70;99.90
51557;DHT22;38766;53.194;5.532;2024-01-30T11:04:56;8.70;99.90
51557;DHT22;38766;53.194;5.532;2024-01-30T11:07:29;8.80;99.90
51557;DHT22;38766;53.194;5.532;2024-01-30T11:12:27;8.80;99.90
51557;DHT22;38766;53.194;5.532;2024-01-30T11:15:08;8.80;99.90
51557;DHT22;38766;53.194;5.532;2024-01-30T11:17:50;8.70;99.90
51557;DHT22;38766;53.194;5.532;2024-01-30T11:20:30;8.70;99.90
51557;DHT22;38766;53.194;5.532;2024-01-30T11:23:01;8.70;99.90
51557;DHT22;38766;53.194;5.532;2024-01-30T11:25:32;8.60;99.90
51557;DHT22;38766;53.194;5.532;2024-01-30T11:27:58;8.50;99.90
51557;DHT22;38766;53.194;5.532;2024-01-30T11:30:29;8.50;99.90
51557;DHT22;38766;53.194;5.532;2024-01-30T11:33:02;8.50;99.90
51557;DHT22;38766;53.194;5.532;2024-01-30T11:35:37;8.50;99.90
51557;DHT22;38766;53.194;5.532;2024-01-30T11:38:03;8.50;99.90
51557;DHT22;38766;53.194;5.532;2024-01-30T11:40:30;8.50;99.90
51557;DHT22;38766;53.194;5.532;2024-01-30T11:42:56;8.50;99.90
51557;DHT22;38766;53.194;5.532;2024-01-30T11:45:23;8.50;99.90
51557;DHT22;38766;53.194;5.532;2024-01-30T11:47:49;8.40;99.90
51557;DHT22;38766;53.194;5.532;2024-01-30T11:50:15;8.40;99.90
51557;DHT22;38766;53.194;5.532;2024-01-30T11:52:41;8.40;99.90
51557;DHT22;38766;53.194;5.532;2024-01-30T11:55:09;8.50;99.90
51557;DHT22;38766;53.194;5.532;2024-01-30T11:57:34;8.50;99.90
51557;DHT22;38766;53.194;5.532;2024-01-30T12:00:04;8.50;99.90
51557;DHT22;38766;53.194;5.532;2024-01-30T12:02:41;8.50;99.90
51557;DHT22;38766;53.194;5.532;2024-01-30T12:05:08;8.50;99.90
51557;DHT22;38766;53.194;5.532;2024-01-30T12:07:34;8.50;99.90
51557;DHT22;38766;53.194;5.532;2024-01-30T12:10:00;8.50;99.90
51557;DHT22;38766;53.194;5.532;2024-01-30T12:12:26;8.50;99.90
51557;DHT22;38766;53.194;5.532;2024-01-30T12:14:53;8.50;99.90
51557;DHT22;38766;53.194;5.532;2024-01-30T12:17:28;8.50;99.90
51557;DHT22;38766;53.194;5.532;2024-01-30T12:20:11;8.50;99.90
51557;DHT22;38766;53.194;5.532;2024-01-30T12:22:47;8.60;99.90
51557;DHT22;38766;53.194;5.532;2024-01-30T12:25:15;8.60;99.90
51557;DHT22;38766;53.194;5.532;2024-01-30T12:27:46;8.60;99.90
51557;DHT22;38766;53.194;5.532;2024-01-30T12:30:13;8.60;99.90
51557;DHT22;38766;53.194;5.532;2024-01-30T12:32:49;8.60;99.90
51557;DHT22;38766;53.194;5.532;2024-01-30T12:35:17;8.60;99.90
51557;DHT22;38766;53.194;5.532;2024-01-30T12:37:44;8.60;99.90
51557;DHT22;38766;53.194;5.532;2024-01-30T12:40:11;8.60;99.90
51557;DHT22;38766;53.194;5.532;2024-01-30T12:42:39;8.60;99.90
51557;DHT22;38766;53.194;5.532;2024-01-30T12:45:05;8.60;99.90
51557;DHT22;38766;53.194;5.532;2024-01-30T12:47:31;8.60;99.90
51557;DHT22;38766;53.194;5.532;2024-01-30T12:49:57;8.60;99.90
51557;DHT22;38766;53.194;5.532;2024-01-30T12:52:23;8.60;99.90
51557;DHT22;38766;53.194;5.532;2024-01-30T12:54:49;8.60;99.90
51557;DHT22;38766;53.194;5.532;2024-01-30T12:57:15;8.60;99.90
51557;DHT22;38766;53.194;5.532;2024-01-30T12:59:42;8.60;99.90
51557;DHT22;38766;53.194;5.532;2024-01-30T13:02:08;8.50;99.90
51557;DHT22;38766;53.194;5.532;2024-01-30T13:04:35;8.50;99.90
51557;DHT22;38766;53.194;5.532;2024-01-30T13:07:00;8.50;99.90
51557;DHT22;38766;53.194;5.532;2024-01-30T13:09:26;8.50;99.90
51557;DHT22;38766;53.194;5.532;2024-01-30T13:11:52;8.50;99.90
51557;DHT22;38766;53.194;5.532;2024-01-30T13:14:18;8.50;99.90
51557;DHT22;38766;53.194;5.532;2024-01-30T13:16:44;8.50;99.90
51557;DHT22;38766;53.194;5.532;2024-01-30T13:19:10;8.50;99.90
51557;DHT22;38766;53.194;5.532;2024-01-30T13:21:35;8.50;99.90
51557;DHT22;38766;53.194;5.532;2024-01-30T13:24:01;8.50;99.90
51557;DHT22;38766;53.194;5.532;2024-01-30T13:26:26;8.50;99.90
51557;DHT22;38766;53.194;5.532;2024-01-30T13:28:52;8.50;99.90
51557;DHT22;38766;53.194;5.532;2024-01-30T13:31:18;8.50;99.90
51557;DHT22;38766;53.194;5.532;2024-01-30T13:33:44;8.50;99.90
51557;DHT22;38766;53.194;5.532;2024-01-30T13:36:11;8.50;99.90
51557;DHT22;38766;53.194;5.532;2024-01-30T13:38:37;8.50;99.90
51557;DHT22;38766;53.194;5.532;2024-01-30T13:41:03;8.50;99.90
51557;DHT22;38766;53.194;5.532;2024-01-30T13:43:29;8.50;99.90
51557;DHT22;38766;53.194;5.532;2024-01-30T13:45:55;8.50;99.90
51557;DHT22;38766;53.194;5.532;2024-01-30T13:48:21;8.50;99.90
51557;DHT22;38766;53.194;5.532;2024-01-30T13:50:47;8.50;99.90
51557;DHT22;38766;53.194;5.532;2024-01-30T13:53:13;8.50;99.90
51557;DHT22;38766;53.194;5.532;2024-01-30T13:55:39;8.50;99.90
51557;DHT22;38766;53.194;5.532;2024-01-30T13:58:07;8.40;99.90
51557;DHT22;38766;53.194;5.532;2024-01-30T14:00:33;8.50;99.90
51557;DHT22;38766;53.194;5.532;2024-01-30T14:02:59;8.40;99.90
51557;DHT22;38766;53.194;5.532;2024-01-30T14:05:25;8.40;99.90
51557;DHT22;38766;53.194;5.532;2024-01-30T14:07:52;8.40;99.90
51557;DHT22;38766;53.194;5.532;2024-01-30T14:10:17;8.40;99.90
51557;DHT22;38766;53.194;5.532;2024-01-30T14:12:44;8.40;99.90
51557;DHT22;38766;53.194;5.532;2024-01-30T14:15:10;8.40;99.90
51557;DHT22;38766;53.194;5.532;2024-01-30T14:17:36;8.40;99.90
51557;DHT22;38766;53.194;5.532;2024-01-30T14:20:05;8.30;99.90
51557;DHT22;38766;53.194;5.532;2024-01-30T14:22:33;8.30;99.90
51557;DHT22;38766;53.194;5.532;2024-01-30T14:24:59;8.30;99.90
51557;DHT22;38766;53.194;5.532;2024-01-30T14:27:24;8.30;99.90
51557;DHT22;38766;53.194;5.532;2024-01-30T14:29:50;8.30;99.90
51557;DHT22;38766;53.194;5.532;2024-01-30T14:32:15;8.20;99.90
51557;DHT22;38766;53.194;5.532;2024-01-30T14:34:41;8.20;99.90
51557;DHT22;38766;53.194;5.532;2024-01-30T14:37:07;8.20;99.90
51557;DHT22;38766;53.194;5.532;2024-01-30T14:39:32;8.20;99.90
51557;DHT22;38766;53.194;5.532;2024-01-30T14:41:59;8.20;99.90
51557;DHT22;38766;53.194;5.532;2024-01-30T14:44:25;8.10;99.90
51557;DHT22;38766;53.194;5.532;2024-01-30T14:46:51;8.10;99.90
51557;DHT22;38766;53.194;5.532;2024-01-30T14:49:17;8.10;99.90
51557;DHT22;38766;53.194;5.532;2024-01-30T14:51:42;8.10;99.90
51557;DHT22;38766;53.194;5.532;2024-01-30T14:54:08;8.00;99.90
51557;DHT22;38766;53.194;5.532;2024-01-30T14:56:34;8.00;99.90
51557;DHT22;38766;53.194;5.532;2024-01-30T14:59:00;8.00;99.90
51557;DHT22;38766;53.194;5.532;2024-01-30T15:01:25;8.00;99.90
51557;DHT22;38766;53.194;5.532;2024-01-30T15:03:51;8.00;99.90
51557;DHT22;38766;53.194;5.532;2024-01-30T15:06:17;8.00;99.90
51557;DHT22;38766;53.194;5.532;2024-01-30T15:08:43;7.90;99.90
51557;DHT22;38766;53.194;5.532;2024-01-30T15:11:09;7.90;99.90
51557;DHT22;38766;53.194;5.532;2024-01-30T15:13:35;7.90;99.90
51557;DHT22;38766;53.194;5.532;2024-01-30T15:16:02;7.80;99.90
51557;DHT22;38766;53.194;5.532;2024-01-30T15:18:28;7.80;99.90
51557;DHT22;38766;53.194;5.532;2024-01-30T15:20:54;7.80;99.90
51557;DHT22;38766;53.194;5.532;2024-01-30T15:23:19;7.80;99.90
51557;DHT22;38766;53.194;5.532;2024-01-30T15:25:45;7.80;99.90
51557;DHT22;38766;53.194;5.532;2024-01-30T15:28:11;7.70;99.90
51557;DHT22;38766;53.194;5.532;2024-01-30T15:30:36;7.70;99.90
51557;DHT22;38766;53.194;5.532;2024-01-30T15:33:02;7.70;99.90
51557;DHT22;38766;53.194;5.532;2024-01-30T15:35:28;7.70;99.90
51557;DHT22;38766;53.194;5.532;2024-01-30T15:37:54;7.80;99.90
51557;DHT22;38766;53.194;5.532;2024-01-30T15:40:19;7.70;99.90
51557;DHT22;38766;53.194;5.532;2024-01-30T15:42:46;7.70;99.90